createdAt,value
2023-04-26T00:01:43.028Z,100673.22
2023-04-26T00:04:12.970Z,100676.72
2023-04-26T00:06:42.930Z,100681.03
2023-04-26T00:09:12.651Z,100679.31
2023-04-26T00:11:42.390Z,100680.16
2023-04-26T00:14:14.734Z,100678.44
2023-04-26T00:16:44.506Z,100678.41
2023-04-26T00:19:14.190Z,100681.03
2023-04-26T00:21:43.855Z,100680.19
2023-04-26T00:24:13.559Z,100676.69
2023-04-26T00:26:43.256Z,100676.69
2023-04-26T00:29:15.962Z,100677.56
2023-04-26T00:31:45.771Z,100671.47
2023-04-26T00:34:15.995Z,100666.25
2023-04-26T00:36:46.201Z,100671.47
2023-04-26T00:39:16.571Z,100670.63
2023-04-26T00:41:46.309Z,100662.78
2023-04-26T00:44:18.620Z,100660.19
2023-04-26T00:46:48.373Z,100666.25
2023-04-26T00:49:20.028Z,100664.50
2023-04-26T00:51:50.159Z,100661.91
2023-04-26T00:54:20.136Z,100662.78
2023-04-26T00:56:52.200Z,100659.31
2023-04-26T00:59:25.176Z,100656.69
2023-04-26T01:01:54.914Z,100657.53
2023-04-26T01:04:26.443Z,100654.94
2023-04-26T01:06:56.578Z,100667.09
2023-04-26T01:09:26.361Z,100664.50
2023-04-26T01:11:58.551Z,100673.16
2023-04-26T01:14:31.392Z,100665.34
2023-04-26T01:17:03.208Z,100669.69
2023-04-26T01:19:33.017Z,100679.22
2023-04-26T01:22:02.687Z,100669.69
2023-04-26T01:24:36.253Z,100673.13
2023-04-26T01:27:06.685Z,100675.72
2023-04-26T01:29:36.508Z,100675.72
2023-04-26T01:32:07.573Z,100685.28
2023-04-26T01:34:37.480Z,100680.06
2023-04-26T01:37:07.925Z,100676.59
2023-04-26T01:39:40.475Z,100677.47
2023-04-26T01:42:10.157Z,100686.13
2023-04-26T01:44:39.876Z,100678.31
2023-04-26T01:47:09.503Z,100683.53
2023-04-26T01:49:39.225Z,100677.41
2023-04-26T01:52:08.878Z,100674.81
2023-04-26T01:54:41.439Z,100667.84
2023-04-26T01:57:11.261Z,100677.38
2023-04-26T01:59:40.990Z,100679.13
2023-04-26T02:02:10.874Z,100672.16
2023-04-26T02:04:41.158Z,100665.22
2023-04-26T02:07:10.828Z,100666.97
2023-04-26T02:09:51.233Z,100673.88
2023-04-26T02:12:20.925Z,100678.22
2023-04-26T02:14:50.650Z,100674.72
2023-04-26T02:17:21.440Z,100666.06
2023-04-26T02:19:51.127Z,100679.06
2023-04-26T02:22:21.928Z,100674.72
2023-04-26T02:24:54.590Z,100672.97
2023-04-26T02:27:30.155Z,100674.69
2023-04-26T02:29:59.832Z,100680.78
2023-04-26T02:32:29.798Z,100681.63
2023-04-26T02:35:00.972Z,100678.16
2023-04-26T02:37:30.734Z,100674.69
2023-04-26T02:40:05.483Z,100677.28
2023-04-26T02:42:35.256Z,100676.41
2023-04-26T02:45:05.081Z,100676.41
2023-04-26T02:47:36.987Z,100668.59
2023-04-26T02:50:07.711Z,100665.97
2023-04-26T02:52:39.291Z,100670.31
2023-04-26T02:55:12.051Z,100664.25
2023-04-26T02:57:41.852Z,100670.31
2023-04-26T03:00:14.246Z,100665.97
2023-04-26T03:02:44.303Z,100665.97
2023-04-26T03:05:14.136Z,100660.75
2023-04-26T03:07:44.192Z,100659.03
2023-04-26T03:10:16.623Z,100665.97
2023-04-26T03:12:46.942Z,100659.91
2023-04-26T03:15:18.514Z,100659.91
2023-04-26T03:17:48.607Z,100649.44
2023-04-26T03:20:18.915Z,100653.78
2023-04-26T03:22:50.059Z,100649.44
2023-04-26T03:25:22.481Z,100650.28
2023-04-26T03:27:52.302Z,100657.25
2023-04-26T03:30:22.197Z,100653.72
2023-04-26T03:32:52.576Z,100644.16
2023-04-26T03:35:22.366Z,100652.81
2023-04-26T03:37:53.433Z,100646.75
2023-04-26T03:40:26.504Z,100648.47
2023-04-26T03:42:56.210Z,100642.41
2023-04-26T03:45:26.974Z,100645.84
2023-04-26T03:47:56.938Z,100649.31
2023-04-26T03:50:26.817Z,100653.66
2023-04-26T03:52:56.640Z,100642.34
2023-04-26T03:55:29.643Z,100650.16
2023-04-26T03:58:00.723Z,100654.50
2023-04-26T04:00:30.435Z,100656.25
2023-04-26T04:03:00.371Z,100660.63
2023-04-26T04:05:30.408Z,100651.97
2023-04-26T04:08:01.073Z,100648.53
2023-04-26T04:10:33.456Z,100647.69
2023-04-26T04:13:03.172Z,100649.41
2023-04-26T04:15:33.403Z,100664.13
2023-04-26T04:18:03.210Z,100655.47
2023-04-26T04:20:33.056Z,100658.94
2023-04-26T04:23:06.385Z,100648.53
2023-04-26T04:25:39.085Z,100654.63
2023-04-26T04:28:12.172Z,100654.63
2023-04-26T04:30:41.966Z,100665.94
2023-04-26T04:33:12.374Z,100670.31
2023-04-26T04:35:44.947Z,100669.41
2023-04-26T04:38:14.674Z,100673.78
2023-04-26T04:40:47.382Z,100671.16
2023-04-26T04:43:17.895Z,100670.31
2023-04-26T04:45:49.431Z,100669.47
2023-04-26T04:48:20.682Z,100666.03
2023-04-26T04:50:50.734Z,100671.28
2023-04-26T04:53:20.539Z,100676.53
2023-04-26T04:55:53.219Z,100683.47
2023-04-26T04:58:22.956Z,100671.34
2023-04-26T05:00:54.363Z,100680.91
2023-04-26T05:03:30.291Z,100674.00
2023-04-26T05:06:00.269Z,100686.19
2023-04-26T05:08:29.995Z,100684.47
2023-04-26T05:11:05.274Z,100681.03
2023-04-26T05:13:35.068Z,100689.72
2023-04-26T05:16:04.926Z,100692.34
2023-04-26T05:18:34.786Z,100690.59
2023-04-26T05:21:05.183Z,100694.94
2023-04-26T05:23:35.126Z,100697.53
2023-04-26T05:26:09.311Z,100694.94
2023-04-26T05:28:57.462Z,100693.97
2023-04-26T05:31:32.951Z,100696.47
2023-04-26T05:34:24.380Z,100698.88
2023-04-26T05:36:58.396Z,100698.72
2023-04-26T05:39:28.455Z,100703.75
2023-04-26T05:42:01.749Z,100706.16
2023-04-26T05:44:31.478Z,100706.72
2023-04-26T05:47:03.314Z,100702.97
2023-04-26T05:49:34.102Z,100702.72
2023-04-26T05:52:04.718Z,100700.78
2023-04-26T05:54:35.195Z,100698.94
2023-04-26T05:57:08.450Z,100708.41
2023-04-26T05:59:41.705Z,100710.94
2023-04-26T06:02:12.509Z,100717.75
2023-04-26T06:04:43.162Z,100713.25
2023-04-26T06:07:17.242Z,100712.94
2023-04-26T06:09:49.654Z,100705.56
2023-04-26T06:12:22.113Z,100713.88
2023-04-26T06:14:52.036Z,100726.59
2023-04-26T06:17:25.515Z,100716.53
2023-04-26T06:19:55.515Z,100720.56
2023-04-26T06:22:25.320Z,100724.44
2023-04-26T06:24:55.295Z,100714.25
2023-04-26T06:27:27.673Z,100724.94
2023-04-26T06:29:57.801Z,100724.06
2023-04-26T06:32:29.693Z,100727.94
2023-04-26T06:34:59.545Z,100716.31
2023-04-26T06:37:29.483Z,100728.03
2023-04-26T06:39:59.348Z,100719.53
2023-04-26T06:42:31.880Z,100711.56
2023-04-26T06:45:21.837Z,100716.28
2023-04-26T06:47:54.239Z,100718.81
2023-04-26T06:50:27.034Z,100714.31
2023-04-26T06:52:56.762Z,100713.63
2023-04-26T06:55:27.217Z,100708.59
2023-04-26T06:57:59.834Z,100705.47
2023-04-26T07:00:30.120Z,100700.56
2023-04-26T07:03:00.061Z,100700.06
2023-04-26T07:05:29.788Z,100699.09
2023-04-26T07:07:59.477Z,100695.25
2023-04-26T07:10:29.266Z,100700.97
2023-04-26T07:13:01.673Z,100702.34
2023-04-26T07:15:31.586Z,100710.06
2023-04-26T07:18:01.493Z,100714.38
2023-04-26T07:20:31.182Z,100708.97
2023-04-26T07:23:00.859Z,100708.34
2023-04-26T07:25:30.517Z,100703.59
2023-04-26T07:28:02.775Z,100710.13
2023-04-26T07:30:32.692Z,100707.00
2023-04-26T07:33:02.497Z,100708.31
2023-04-26T07:35:34.858Z,100704.63
2023-04-26T07:38:04.570Z,100709.53
2023-04-26T07:40:34.225Z,100704.63
2023-04-26T07:43:06.504Z,100699.41
2023-04-26T07:45:36.256Z,100691.31
2023-04-26T07:48:06.085Z,100690.56
2023-04-26T07:50:35.813Z,100704.31
2023-04-26T07:53:05.502Z,100702.53
2023-04-26T07:55:35.160Z,100705.84
2023-04-26T07:58:08.291Z,100712.47
2023-04-26T08:00:40.158Z,100711.50
2023-04-26T08:03:10.455Z,100709.41
2023-04-26T08:05:40.451Z,100707.34
2023-04-26T08:08:10.586Z,100704.78
2023-04-26T08:10:40.247Z,100699.88
2023-04-26T08:13:12.670Z,100694.75
2023-04-26T08:15:42.367Z,100706.06
2023-04-26T08:18:12.188Z,100705.09
2023-04-26T08:20:42.753Z,100699.75
2023-04-26T08:23:12.774Z,100705.13
2023-04-26T08:25:42.454Z,100712.41
2023-04-26T08:28:14.743Z,100707.28
2023-04-26T08:30:44.469Z,100712.19
2023-04-26T08:33:14.290Z,100708.84
2023-04-26T08:35:44.465Z,100708.94
2023-04-26T08:38:14.854Z,100707.25
2023-04-26T08:40:45.071Z,100709.25
2023-04-26T08:43:18.132Z,100697.78
2023-04-26T08:45:49.376Z,100704.75
2023-04-26T08:48:19.878Z,100707.13
2023-04-26T08:50:50.127Z,100703.56
2023-04-26T08:53:20.543Z,100704.78
2023-04-26T08:55:52.260Z,100704.66
2023-04-26T08:58:26.145Z,100703.72
2023-04-26T09:00:55.879Z,100700.19
2023-04-26T09:03:26.801Z,100703.28
2023-04-26T09:05:56.780Z,100712.94
2023-04-26T09:08:28.263Z,100716.13
2023-04-26T09:10:58.154Z,100717.19
2023-04-26T09:13:33.497Z,100715.63
2023-04-26T09:16:05.045Z,100708.91
2023-04-26T09:18:35.164Z,100702.31
2023-04-26T09:21:07.865Z,100704.41
2023-04-26T09:23:38.073Z,100703.16
2023-04-26T09:26:23.244Z,100708.78
2023-04-26T09:29:14.202Z,100706.94
2023-04-26T09:31:48.651Z,100709.28
2023-04-26T09:34:19.545Z,100703.88
2023-04-26T09:36:53.292Z,100707.19
2023-04-26T09:39:37.679Z,100701.47
2023-04-26T09:42:08.079Z,100698.81
2023-04-26T09:44:41.081Z,100700.03
2023-04-26T09:47:12.826Z,100701.78
2023-04-26T09:49:50.956Z,100702.44
2023-04-26T09:52:21.345Z,100690.81
2023-04-26T09:54:52.254Z,100681.00
2023-04-26T09:57:23.768Z,100682.22
2023-04-26T09:59:56.586Z,100682.25
2023-04-26T10:02:27.935Z,100685.34
2023-04-26T10:05:00.273Z,100685.44
2023-04-26T10:07:30.182Z,100693.47
2023-04-26T10:10:00.514Z,100677.22
2023-04-26T10:12:30.230Z,100673.38
2023-04-26T10:15:02.535Z,100669.78
2023-04-26T10:17:32.844Z,100668.84
2023-04-26T10:20:03.514Z,100673.97
2023-04-26T10:22:37.072Z,100672.94
2023-04-26T10:25:07.464Z,100678.13
2023-04-26T10:27:57.948Z,100681.03
2023-04-26T10:30:30.185Z,100675.53
2023-04-26T10:33:23.925Z,100679.88
2023-04-26T10:36:13.925Z,100675.34
2023-04-26T10:38:44.932Z,100673.66
2023-04-26T10:41:33.685Z,100669.06
2023-04-26T10:44:19.433Z,100675.56
2023-04-26T10:46:53.484Z,100677.84
2023-04-26T10:49:26.627Z,100671.16
2023-04-26T10:52:14.992Z,100669.88
2023-04-26T10:54:52.191Z,100661.31
2023-04-26T10:57:22.161Z,100662.22
2023-04-26T11:00:23.670Z,100663.78
2023-04-26T11:03:01.231Z,100668.16
2023-04-26T11:05:56.821Z,100661.56
2023-04-26T11:08:32.010Z,100655.88
2023-04-26T11:11:13.905Z,100664.06
2023-04-26T11:13:46.163Z,100661.69
2023-04-26T11:16:16.986Z,100663.63
2023-04-26T11:18:50.614Z,100665.34
2023-04-26T11:21:20.389Z,100658.72
2023-04-26T11:23:56.503Z,100664.19
2023-04-26T11:26:26.787Z,100650.66
2023-04-26T11:28:56.558Z,100646.59
2023-04-26T11:31:26.545Z,100659.22
2023-04-26T11:34:04.917Z,100650.50
2023-04-26T11:36:34.822Z,100644.28
2023-04-26T11:39:04.564Z,100646.31
2023-04-26T11:41:34.212Z,100650.81
2023-04-26T11:44:03.953Z,100642.56
2023-04-26T11:46:33.883Z,100644.81
2023-04-26T11:49:06.231Z,100644.75
2023-04-26T11:51:36.056Z,100638.44
2023-04-26T11:54:06.076Z,100638.41
2023-04-26T11:56:35.806Z,100636.97
2023-04-26T11:59:05.577Z,100627.56
2023-04-26T12:01:35.982Z,100635.13
2023-04-26T12:04:12.963Z,100632.66
2023-04-26T12:06:45.574Z,100628.97
2023-04-26T12:09:15.612Z,100629.06
2023-04-26T12:11:51.255Z,100631.16
2023-04-26T12:14:21.080Z,100639.16
2023-04-26T12:16:51.800Z,100647.56
2023-04-26T12:19:26.859Z,100646.53
2023-04-26T12:21:56.676Z,100642.84
2023-04-26T12:24:27.304Z,100647.63
2023-04-26T12:26:57.107Z,100650.06
2023-04-26T12:29:26.819Z,100650.31
2023-04-26T12:31:56.886Z,100647.03
2023-04-26T12:34:29.898Z,100647.47
2023-04-26T12:37:00.105Z,100642.31
2023-04-26T12:39:30.204Z,100650.75
2023-04-26T12:42:00.502Z,100643.13
2023-04-26T12:44:30.632Z,100636.19
2023-04-26T12:47:00.885Z,100639.66
2023-04-26T12:49:33.502Z,100634.50
2023-04-26T12:52:03.839Z,100638.28
2023-04-26T12:54:33.803Z,100638.63
2023-04-26T12:57:03.890Z,100639.25
2023-04-26T12:59:33.893Z,100636.66
2023-04-26T13:02:03.966Z,100641.81
2023-04-26T13:04:40.836Z,100638.19
2023-04-26T13:07:11.398Z,100632.69
2023-04-26T13:09:41.338Z,100632.25
2023-04-26T13:12:11.058Z,100622.78
2023-04-26T13:14:41.615Z,100628.88
2023-04-26T13:17:11.488Z,100632.22
2023-04-26T13:19:43.771Z,100636.03
2023-04-26T13:22:14.241Z,100632.66
2023-04-26T13:24:43.887Z,100637.00
2023-04-26T13:27:13.584Z,100641.28
2023-04-26T13:29:43.368Z,100642.56
2023-04-26T13:32:13.156Z,100637.00
2023-04-26T13:34:45.825Z,100632.84
2023-04-26T13:37:17.419Z,100636.25
2023-04-26T13:39:47.087Z,100629.28
2023-04-26T13:42:16.940Z,100637.28
2023-04-26T13:44:46.886Z,100630.88
2023-04-26T13:47:17.710Z,100628.06
2023-04-26T13:49:50.167Z,100631.97
2023-04-26T13:52:19.924Z,100622.50
2023-04-26T13:54:49.591Z,100624.59
2023-04-26T13:57:19.635Z,100625.16
2023-04-26T13:59:49.269Z,100615.22
2023-04-26T14:02:19.187Z,100619.88
2023-04-26T14:04:51.925Z,100619.75
2023-04-26T14:07:22.484Z,100620.16
2023-04-26T14:09:53.830Z,100616.31
2023-04-26T14:12:23.521Z,100612.94
2023-04-26T14:14:53.521Z,100613.97
2023-04-26T14:17:23.185Z,100616.63
2023-04-26T14:19:55.456Z,100607.25
2023-04-26T14:22:25.144Z,100610.53
2023-04-26T14:24:54.843Z,100606.63
2023-04-26T14:27:24.745Z,100607.97
2023-04-26T14:29:54.379Z,100600.97
2023-04-26T14:32:24.071Z,100606.56
2023-04-26T14:34:56.454Z,100605.34
2023-04-26T14:37:26.189Z,100603.19
2023-04-26T14:39:55.984Z,100617.78
2023-04-26T14:42:25.678Z,100613.91
2023-04-26T14:44:55.386Z,100612.59
2023-04-26T14:47:25.083Z,100607.94
2023-04-26T14:49:57.336Z,100605.38
2023-04-26T14:52:29.160Z,100595.34
2023-04-26T14:54:58.873Z,100593.97
2023-04-26T14:57:28.679Z,100595.81
2023-04-26T15:00:04.757Z,100589.69
2023-04-26T15:02:34.887Z,100583.59
2023-04-26T15:05:08.014Z,100582.06
2023-04-26T15:07:37.965Z,100596.44
2023-04-26T15:10:11.303Z,100596.13
2023-04-26T15:12:41.063Z,100585.19
2023-04-26T15:15:11.520Z,100583.78
2023-04-26T15:17:41.452Z,100589.81
2023-04-26T15:20:14.684Z,100590.44
2023-04-26T15:22:44.412Z,100588.63
2023-04-26T15:25:14.405Z,100587.16
2023-04-26T15:27:46.030Z,100587.69
2023-04-26T15:30:16.431Z,100578.78
2023-04-26T15:32:46.155Z,100572.34
2023-04-26T15:35:18.545Z,100576.59
2023-04-26T15:37:48.269Z,100583.84
2023-04-26T15:40:17.944Z,100587.56
2023-04-26T15:42:48.937Z,100581.50
2023-04-26T15:45:18.714Z,100583.34
2023-04-26T15:47:48.518Z,100590.19
2023-04-26T15:50:20.866Z,100584.47
2023-04-26T15:52:51.660Z,100584.69
2023-04-26T15:55:21.532Z,100578.53
2023-04-26T15:57:51.242Z,100586.28
2023-04-26T16:00:21.597Z,100579.75
2023-04-26T16:02:51.458Z,100579.44
2023-04-26T16:05:23.806Z,100582.00
2023-04-26T16:07:53.882Z,100580.44
2023-04-26T16:10:23.945Z,100575.59
2023-04-26T16:12:53.845Z,100582.34
2023-04-26T16:15:23.699Z,100588.06
2023-04-26T16:17:53.461Z,100586.47
2023-04-26T16:20:26.196Z,100582.25
2023-04-26T16:22:56.404Z,100580.66
2023-04-26T16:25:26.314Z,100585.28
2023-04-26T16:27:56.929Z,100578.69
2023-04-26T16:30:26.618Z,100591.41
2023-04-26T16:32:56.338Z,100583.72
2023-04-26T16:35:28.729Z,100579.50
2023-04-26T16:37:58.367Z,100572.50
2023-04-26T16:40:27.997Z,100576.16
2023-04-26T16:42:57.726Z,100578.97
2023-04-26T16:45:27.885Z,100574.91
2023-04-26T16:47:57.598Z,100575.25
2023-04-26T16:50:29.990Z,100586.03
2023-04-26T16:52:59.864Z,100573.91
2023-04-26T16:55:29.572Z,100581.09
2023-04-26T16:57:59.236Z,100577.63
2023-04-26T17:00:29.299Z,100582.19
2023-04-26T17:02:59.129Z,100591.03
2023-04-26T17:05:31.583Z,100578.06
2023-04-26T17:08:01.352Z,100583.50
2023-04-26T17:10:31.083Z,100579.19
2023-04-26T17:13:00.809Z,100589.78
2023-04-26T17:15:30.613Z,100593.38
2023-04-26T17:18:00.457Z,100591.66
2023-04-26T17:20:33.359Z,100593.47
2023-04-26T17:23:04.151Z,100589.16
2023-04-26T17:25:34.188Z,100593.72
2023-04-26T17:28:03.853Z,100593.81
2023-04-26T17:30:33.540Z,100589.53
2023-04-26T17:33:03.416Z,100599.47
2023-04-26T17:35:35.932Z,100590.91
2023-04-26T17:38:05.961Z,100596.34
2023-04-26T17:40:35.659Z,100593.03
2023-04-26T17:43:05.558Z,100592.44
2023-04-26T17:45:35.339Z,100595.47
2023-04-26T17:48:05.553Z,100598.38
2023-04-26T17:50:37.895Z,100596.81
2023-04-26T17:53:08.205Z,100603.06
2023-04-26T17:55:37.963Z,100612.88
2023-04-26T17:58:08.065Z,100607.69
2023-04-26T18:00:37.983Z,100606.94
2023-04-26T18:03:08.046Z,100607.16
2023-04-26T18:05:40.513Z,100610.81
2023-04-26T18:08:10.183Z,100611.84
2023-04-26T18:10:40.072Z,100616.34
2023-04-26T18:13:11.227Z,100616.53
2023-04-26T18:15:41.041Z,100613.16
2023-04-26T18:18:10.749Z,100611.59
2023-04-26T18:20:43.152Z,100608.19
2023-04-26T18:23:12.829Z,100613.66
2023-04-26T18:25:42.516Z,100617.31
2023-04-26T18:28:12.744Z,100621.03
2023-04-26T18:30:42.524Z,100622.03
2023-04-26T18:33:12.234Z,100616.03
2023-04-26T18:35:44.616Z,100621.41
2023-04-26T18:38:14.250Z,100625.06
2023-04-26T18:40:46.087Z,100620.84
2023-04-26T18:43:15.854Z,100626.16
2023-04-26T18:45:45.770Z,100626.31
2023-04-26T18:48:15.512Z,100629.91
2023-04-26T18:50:54.003Z,100628.28
2023-04-26T18:53:24.384Z,100637.19
2023-04-26T18:55:54.607Z,100634.66
2023-04-26T18:58:24.268Z,100629.47
2023-04-26T19:00:53.970Z,100639.25
2023-04-26T19:03:23.939Z,100642.84
2023-04-26T19:05:56.603Z,100644.66
2023-04-26T19:08:27.813Z,100640.38
2023-04-26T19:10:57.529Z,100643.97
2023-04-26T19:13:27.468Z,100647.59
2023-04-26T19:15:57.193Z,100650.28
2023-04-26T19:18:27.230Z,100654.75
2023-04-26T19:20:59.556Z,100658.28
2023-04-26T19:23:29.205Z,100659.19
2023-04-26T19:26:04.595Z,100664.50
2023-04-26T19:28:34.372Z,100664.56
2023-04-26T19:31:04.372Z,100661.09
2023-04-26T19:33:34.035Z,100662.03
2023-04-26T19:36:06.685Z,100662.06
2023-04-26T19:38:36.316Z,100661.22
2023-04-26T19:41:06.081Z,100672.63
2023-04-26T19:43:35.726Z,100670.09
2023-04-26T19:46:13.716Z,100670.97
2023-04-26T19:48:43.637Z,100667.53
2023-04-26T19:51:20.052Z,100674.63
2023-04-26T19:53:49.735Z,100673.81
2023-04-26T19:56:19.413Z,100678.25
2023-04-26T19:58:49.070Z,100673.94
2023-04-26T20:01:18.802Z,100681.84
2023-04-26T20:03:48.637Z,100682.75
2023-04-26T20:06:21.004Z,100690.69
2023-04-26T20:08:50.838Z,100684.59
2023-04-26T20:11:20.648Z,100684.59
2023-04-26T20:13:50.303Z,100691.69
2023-04-26T20:16:20.213Z,100689.06
2023-04-26T20:18:50.495Z,100694.31
2023-04-26T20:21:22.822Z,100698.75
2023-04-26T20:23:52.488Z,100696.22
2023-04-26T20:26:22.183Z,100692.75
2023-04-26T20:28:51.835Z,100692.78
2023-04-26T20:31:21.578Z,100695.47
2023-04-26T20:33:51.464Z,100694.59
2023-04-26T20:36:25.620Z,100699.03
2023-04-26T20:38:55.100Z,100699.97
2023-04-26T20:41:24.753Z,100702.66
2023-04-26T20:43:55.144Z,100700.97
2023-04-26T20:46:24.892Z,100695.75
2023-04-26T20:48:54.636Z,100701.06
2023-04-26T20:51:27.033Z,100695.88
2023-04-26T20:53:56.692Z,100691.50
2023-04-26T20:56:26.423Z,100701.19
2023-04-26T20:58:56.833Z,100693.28
2023-04-26T21:01:26.745Z,100695.94
2023-04-26T21:03:56.563Z,100691.63
2023-04-26T21:06:29.659Z,100694.25
2023-04-26T21:08:59.736Z,100692.56
2023-04-26T21:11:29.542Z,100693.47
2023-04-26T21:13:59.237Z,100692.63
2023-04-26T21:16:29.009Z,100695.28
2023-04-26T21:18:58.828Z,100699.75
2023-04-26T21:21:32.714Z,100701.53
2023-04-26T21:24:02.775Z,100698.09
2023-04-26T21:26:32.921Z,100699.03
2023-04-26T21:29:02.610Z,100702.59
2023-04-26T21:31:32.508Z,100696.53
2023-04-26T21:34:02.161Z,100697.41
2023-04-26T21:36:34.421Z,100698.34
2023-04-26T21:39:04.128Z,100704.53
2023-04-26T21:41:33.852Z,100709.78
2023-04-26T21:44:03.521Z,100708.09
2023-04-26T21:46:33.309Z,100708.13
2023-04-26T21:49:03.020Z,100706.38
2023-04-26T21:51:35.239Z,100701.22
2023-04-26T21:54:04.917Z,100707.38
2023-04-26T21:56:34.615Z,100703.03
2023-04-26T21:59:04.862Z,100697.81
2023-04-26T22:01:34.573Z,100703.13
2023-04-26T22:04:04.385Z,100701.41
2023-04-26T22:06:36.754Z,100695.28
2023-04-26T22:09:09.769Z,100699.72
2023-04-26T22:11:39.784Z,100703.22
2023-04-26T22:14:09.424Z,100707.63
2023-04-26T22:16:39.393Z,100712.03
2023-04-26T22:19:09.330Z,100719.03
2023-04-26T22:21:42.003Z,100719.03
2023-04-26T22:24:11.919Z,100719.03
2023-04-26T22:26:41.598Z,100711.22
2023-04-26T22:29:11.859Z,100703.38
2023-04-26T22:31:41.930Z,100710.44
2023-04-26T22:34:11.895Z,100704.34
2023-04-26T22:36:44.595Z,100711.44
2023-04-26T22:39:14.392Z,100719.44
2023-04-26T22:41:44.068Z,100718.66
2023-04-26T22:44:15.073Z,100715.25
2023-04-26T22:46:44.783Z,100722.34
2023-04-26T22:49:14.440Z,100718.88
2023-04-26T22:51:57.325Z,100724.19
2023-04-26T22:54:35.274Z,100724.31
2023-04-26T22:57:07.473Z,100725.22
2023-04-26T22:59:37.120Z,100716.53
2023-04-26T23:02:07.305Z,100721.81
2023-04-26T23:04:36.993Z,100721.03
2023-04-26T23:07:09.277Z,100723.75
2023-04-26T23:09:39.019Z,100718.59
2023-04-26T23:12:09.880Z,100723.06
2023-04-26T23:14:39.569Z,100722.34
2023-04-26T23:17:09.297Z,100726.84
2023-04-26T23:19:39.110Z,100725.25
2023-04-26T23:22:11.448Z,100733.28
2023-04-26T23:24:41.284Z,100734.38
2023-04-26T23:27:11.113Z,100733.66
2023-04-26T23:29:40.914Z,100738.22
2023-04-26T23:32:10.583Z,100730.50
2023-04-26T23:34:40.283Z,100737.66
2023-04-26T23:37:12.525Z,100737.81
2023-04-26T23:39:42.191Z,100736.19
2023-04-26T23:42:11.862Z,100738.09
2023-04-26T23:44:41.549Z,100744.38
2023-04-26T23:47:11.202Z,100735.78
2023-04-26T23:49:40.900Z,100736.78
2023-04-26T23:52:13.120Z,100735.16
2023-04-26T23:54:42.930Z,100736.09
2023-04-26T23:57:12.715Z,100733.56
2023-04-26T23:59:42.372Z,100737.97
